Time;durP1;ratioP1;P1;durP2;ratioP2;P2;SDS_P1;SDS_P2;PMS_P1;PMS_P2;Temp;Humidity;BMP_temperature;BMP_pressure;BME280_temperature;BME280_humidity;BME280_pressure;Samples;Min_cycle;Max_cycle;Signal;HPM_P1;HPM_P2
2023/01/10 00:00:08;;;;;;;7.50;2.63;;;6.50;99.90;;;;;;5072306;28;20173;-43
2023/01/10 00:02:33;;;;;;;10.05;2.10;;;6.40;99.90;;;;;;5072962;28;20225;-43
2023/01/10 00:04:59;;;;;;;4.97;2.50;;;6.50;99.90;;;;;;5073606;28;20676;-43
2023/01/10 00:07:24;;;;;;;6.70;2.15;;;6.50;99.90;;;;;;5073363;28;20594;-43
2023/01/10 00:09:50;;;;;;;7.05;2.17;;;6.40;99.90;;;;;;5073734;28;20622;-45
2023/01/10 00:14:59;;;;;;;9.73;2.53;;;6.40;99.90;;;;;;5073577;28;20177;-42
2023/01/10 00:17:25;;;;;;;9.30;2.25;;;6.40;99.90;;;;;;5073277;28;20162;-43
2023/01/10 00:19:50;;;;;;;8.27;2.13;;;6.50;99.90;;;;;;5073960;28;20170;-43
2023/01/10 00:22:18;;;;;;;6.10;1.90;;;8.00;99.90;;;;;;5073531;28;20166;-44
2023/01/10 00:24:44;;;;;;;6.40;2.33;;;6.60;99.90;;;;;;5073390;28;20205;-43
2023/01/10 00:27:11;;;;;;;9.63;2.65;;;6.50;99.90;;;;;;5073025;28;20236;-43
2023/01/10 00:29:37;;;;;;;6.72;2.35;;;6.50;99.90;;;;;;5073197;28;20181;-43
2023/01/10 00:32:03;;;;;;;11.13;1.83;;;6.50;99.90;;;;;;5073034;28;20162;-44
2023/01/10 00:34:29;;;;;;;5.18;1.70;;;6.60;99.90;;;;;;5073007;28;20177;-44
2023/01/10 00:36:55;;;;;;;9.63;1.98;;;6.50;99.90;;;;;;5072978;28;20519;-43
2023/01/10 00:39:24;;;;;;;3.50;1.88;;;6.60;99.90;;;;;;5072914;28;20162;-44
2023/01/10 00:44:34;;;;;;;7.35;2.10;;;6.50;99.90;;;;;;5073084;28;20251;-43
2023/01/10 00:46:59;;;;;;;9.48;2.60;;;6.50;99.90;;;;;;5072628;28;20256;-43
2023/01/10 00:49:25;;;;;;;8.63;2.03;;;6.60;99.90;;;;;;5072688;28;20589;-43
2023/01/10 00:51:50;;;;;;;6.20;1.88;;;6.60;99.90;;;;;;5072947;28;20177;-42
2023/01/10 00:54:16;;;;;;;6.07;1.80;;;6.50;99.90;;;;;;5072967;28;20170;-43
2023/01/10 00:56:42;;;;;;;7.40;2.42;;;6.50;99.90;;;;;;5072570;28;20169;-43
2023/01/10 00:59:08;;;;;;;8.98;2.20;;;6.60;99.90;;;;;;5071257;28;20529;-43
2023/01/10 01:01:33;;;;;;;5.63;1.88;;;6.60;99.90;;;;;;5072223;28;20166;-42
2023/01/10 01:03:59;;;;;;;5.20;2.05;;;6.50;99.90;;;;;;5071805;28;20235;-42
2023/01/10 01:06:25;;;;;;;16.05;2.40;;;6.50;99.90;;;;;;5072283;28;20170;-43
2023/01/10 01:08:50;;;;;;;9.48;2.28;;;6.60;99.90;;;;;;5072520;28;20232;-42
2023/01/10 01:11:16;;;;;;;8.70;2.65;;;6.60;99.90;;;;;;5072886;28;20676;-43
2023/01/10 01:13:42;;;;;;;8.40;2.30;;;6.60;99.90;;;;;;5072502;28;20177;-42
2023/01/10 01:16:07;;;;;;;5.68;2.28;;;6.50;99.90;;;;;;5072211;28;20162;-43
2023/01/10 01:18:33;;;;;;;7.75;1.90;;;6.60;99.90;;;;;;5072114;28;20169;-42
2023/01/10 01:21:02;;;;;;;6.78;2.17;;;6.60;99.90;;;;;;5072188;28;20161;-42
2023/01/10 01:23:29;;;;;;;9.30;2.70;;;6.60;99.90;;;;;;5072346;28;20209;-42
2023/01/10 01:25:55;;;;;;;6.10;2.08;;;6.50;99.90;;;;;;5072025;28;20630;-42
2023/01/10 01:28:21;;;;;;;6.72;2.28;;;6.50;99.90;;;;;;5072276;28;20557;-42
2023/01/10 01:30:47;;;;;;;5.00;2.03;;;6.50;99.90;;;;;;5072521;28;20166;-42
2023/01/10 01:33:13;;;;;;;12.43;2.28;;;6.50;99.90;;;;;;5071955;28;20173;-43
2023/01/10 01:35:42;;;;;;;6.45;2.22;;;6.50;99.90;;;;;;5072170;28;20162;-43
2023/01/10 01:38:08;;;;;;;5.10;2.08;;;6.50;99.90;;;;;;5072159;28;20227;-42
2023/01/10 01:40:35;;;;;;;7.88;2.67;;;6.50;99.90;;;;;;5071837;28;20637;-43
2023/01/10 01:43:00;;;;;;;10.80;2.58;;;6.40;99.90;;;;;;5072098;28;20216;-43
2023/01/10 01:45:33;;;;;;;7.93;2.33;;;6.40;99.90;;;;;;5071835;28;20216;-44
2023/01/10 01:48:11;;;;;;;11.77;2.35;;;6.50;99.90;;;;;;5071699;28;20202;-42
2023/01/10 01:50:39;;;;;;;9.35;2.10;;;6.40;99.90;;;;;;5071769;28;20239;-42
2023/01/10 01:53:12;;;;;;;11.30;2.83;;;6.40;99.90;;;;;;5071629;28;20687;-42
2023/01/10 01:55:38;;;;;;;9.20;3.60;;;6.40;99.90;;;;;;5071649;28;20224;-42
2023/01/10 01:58:08;;;;;;;7.63;2.50;;;6.50;99.90;;;;;;5071616;28;20170;-42
2023/01/10 02:00:34;;;;;;;7.25;2.10;;;6.40;99.90;;;;;;5071723;28;20184;-42
2023/01/10 02:03:01;;;;;;;8.57;2.58;;;6.40;99.90;;;;;;5071465;28;20681;-42
2023/01/10 02:05:28;;;;;;;11.55;2.80;;;6.40;99.90;;;;;;5071539;28;20166;-42
2023/01/10 02:07:56;;;;;;;6.50;2.58;;;6.40;99.90;;;;;;5071444;28;20209;-42
2023/01/10 02:10:32;;;;;;;9.70;2.65;;;6.40;99.90;;;;;;5071712;28;20174;-42
2023/01/10 02:13:03;;;;;;;8.95;2.70;;;6.20;99.90;;;;;;5071541;28;20526;-42
2023/01/10 02:15:29;;;;;;;9.63;2.47;;;6.30;99.90;;;;;;5073905;28;20162;-42
2023/01/10 02:17:56;;;;;;;9.85;2.47;;;6.20;99.90;;;;;;5075563;28;20562;-42
2023/01/10 02:20:22;;;;;;;11.88;2.45;;;6.20;99.90;;;;;;5075590;28;20169;-42
2023/01/10 02:23:30;;;;;;;9.50;2.28;;;6.20;99.90;;;;;;5076184;28;20636;-42
2023/01/10 02:26:07;;;;;;;7.03;1.95;;;6.10;99.90;;;;;;5075471;28;20162;-42
2023/01/10 02:28:51;;;;;;;11.80;2.55;;;6.20;99.90;;;;;;5075481;28;20233;-42
2023/01/10 02:31:46;;;;;;;5.30;2.08;;;6.10;99.90;;;;;;5075738;28;20201;-43
2023/01/10 02:34:36;;;;;;;5.85;2.33;;;6.20;99.90;;;;;;5075205;28;20158;-42
2023/01/10 02:37:23;;;;;;;11.18;2.55;;;6.20;99.90;;;;;;5075014;28;20162;-42
2023/01/10 02:40:02;;;;;;;10.60;2.25;;;6.10;99.90;;;;;;5075436;28;20170;-42
2023/01/10 02:42:35;;;;;;;8.70;2.15;;;6.10;99.90;;;;;;5075067;28;20166;-42
2023/01/10 02:45:16;;;;;;;7.78;2.70;;;6.10;99.90;;;;;;5075278;28;20180;-42
2023/01/10 02:47:41;;;;;;;9.80;2.50;;;6.10;99.90;;;;;;5074923;28;20197;-46
2023/01/10 02:50:22;;;;;;;10.35;2.70;;;6.10;99.90;;;;;;5074962;28;20170;-42
2023/01/10 02:52:48;;;;;;;9.55;2.30;;;6.10;99.90;;;;;;5075507;28;20632;-43
2023/01/10 02:55:14;;;;;;;11.07;2.53;;;6.00;99.90;;;;;;5075090;28;20252;-42
2023/01/10 02:58:17;;;;;;;7.00;2.17;;;6.00;99.90;;;;;;5074839;28;20249;-42
2023/01/10 03:00:47;;;;;;;10.13;2.03;;;6.00;99.90;;;;;;5074771;28;20252;-43
2023/01/10 03:03:26;;;;;;;6.10;2.28;;;6.00;99.90;;;;;;5074614;28;20225;-43
2023/01/10 03:06:16;;;;;;;8.30;3.10;;;6.00;99.90;;;;;;5074344;28;20200;-42
2023/01/10 03:09:23;;;;;;;12.38;2.25;;;5.90;99.90;;;;;;5074410;28;20233;-42
2023/01/10 03:11:56;;;;;;;6.88;2.80;;;5.90;99.90;;;;;;5013063;28;20174;-42
2023/01/10 03:14:25;;;;;;;7.88;2.33;;;5.90;99.90;;;;;;5012738;28;20176;-42
2023/01/10 03:16:59;;;;;;;8.18;2.67;;;6.00;99.90;;;;;;5047141;28;20178;-42
2023/01/10 03:19:30;;;;;;;10.38;3.10;;;5.80;99.90;;;;;;5074394;28;20189;-42
2023/01/10 03:21:59;;;;;;;10.10;2.50;;;5.90;99.90;;;;;;5072966;28;20516;-42
2023/01/10 03:25:03;;;;;;;7.85;2.33;;;5.90;99.90;;;;;;5074144;28;20170;-42
2023/01/10 03:27:54;;;;;;;9.27;2.10;;;5.90;99.90;;;;;;5040353;28;20213;-42
2023/01/10 03:30:42;;;;;;;5.22;2.22;;;5.90;99.90;;;;;;5074401;28;20192;-42
2023/01/10 03:33:10;;;;;;;9.52;2.00;;;5.90;99.90;;;;;;5074163;28;20602;-42
2023/01/10 03:35:50;;;;;;;13.50;3.28;;;5.80;99.90;;;;;;5074346;28;20177;-42
2023/01/10 03:38:26;;;;;;;6.20;2.38;;;5.90;99.90;;;;;;5074341;28;20574;-42
2023/01/10 03:41:12;;;;;;;12.98;2.90;;;5.90;99.90;;;;;;5074042;28;20621;-42
2023/01/10 03:47:00;;;;;;;7.65;2.35;;;5.90;99.90;;;;;;5073696;28;20170;-42
2023/01/10 03:49:27;;;;;;;7.22;2.08;;;5.90;99.90;;;;;;5066651;28;20186;-42
2023/01/10 03:51:55;;;;;;;7.50;2.58;;;5.90;99.90;;;;;;5073832;28;20173;-43
2023/01/10 03:54:21;;;;;;;10.32;2.60;;;5.90;99.90;;;;;;5073767;28;20177;-42
2023/01/10 03:56:50;;;;;;;13.90;2.90;;;5.90;99.90;;;;;;5074156;28;20158;-42
2023/01/10 03:59:23;;;;;;;13.13;2.90;;;5.90;99.90;;;;;;5074113;28;20249;-42
2023/01/10 04:01:49;;;;;;;9.52;1.70;;;5.90;99.90;;;;;;5073859;28;20213;-43
2023/01/10 04:04:14;;;;;;;10.50;2.47;;;5.80;99.90;;;;;;5073925;28;20166;-43
2023/01/10 04:06:40;;;;;;;7.35;2.38;;;5.80;99.90;;;;;;5073438;28;20161;-44
2023/01/10 04:09:07;;;;;;;5.72;2.08;;;5.90;99.90;;;;;;5073540;28;20173;-42
2023/01/10 04:11:33;;;;;;;9.98;3.00;;;5.80;99.90;;;;;;5073433;28;20626;-42
2023/01/10 04:13:58;;;;;;;10.20;2.58;;;5.90;99.90;;;;;;5072109;28;20173;-42
2023/01/10 04:16:24;;;;;;;15.02;3.38;;;5.90;99.90;;;;;;5073448;28;20162;-43
2023/01/10 04:18:49;;;;;;;10.32;3.10;;;5.90;99.90;;;;;;5073724;28;20170;-42
2023/01/10 04:21:15;;;;;;;12.05;2.85;;;5.90;99.90;;;;;;5073658;28;20223;-42
2023/01/10 04:23:41;;;;;;;13.95;3.00;;;5.90;99.90;;;;;;5073219;28;20527;-42
2023/01/10 04:26:07;;;;;;;13.85;3.22;;;6.00;99.90;;;;;;5073138;28;20618;-42
2023/01/10 04:28:33;;;;;;;13.70;2.20;;;5.90;99.90;;;;;;5072969;28;20201;-42
2023/01/10 04:30:58;;;;;;;10.15;2.70;;;6.00;99.90;;;;;;5073091;28;20157;-42
2023/01/10 04:33:24;;;;;;;12.50;3.60;;;6.00;99.90;;;;;;5073012;28;20166;-42
2023/01/10 04:35:50;;;;;;;7.30;2.13;;;6.00;99.90;;;;;;5072998;28;20259;-42
2023/01/10 04:38:17;;;;;;;11.80;2.80;;;5.90;99.90;;;;;;5072410;28;20174;-42
2023/01/10 04:40:43;;;;;;;13.02;2.60;;;6.00;99.90;;;;;;5072851;28;20162;-42
2023/01/10 04:43:09;;;;;;;15.30;2.72;;;5.90;99.90;;;;;;5072825;28;20215;-42
2023/01/10 04:45:35;;;;;;;10.45;2.42;;;6.00;99.90;;;;;;5072757;28;20193;-42
2023/01/10 04:48:01;;;;;;;16.63;2.20;;;6.00;99.90;;;;;;5072635;28;20210;-43
2023/01/10 04:50:26;;;;;;;11.15;2.42;;;6.00;99.90;;;;;;5073002;28;20261;-42
2023/01/10 04:52:52;;;;;;;9.35;2.00;;;5.90;99.90;;;;;;5072262;28;20166;-42
2023/01/10 04:55:18;;;;;;;24.92;3.10;;;6.00;99.90;;;;;;5072912;28;20170;-43
2023/01/10 04:57:44;;;;;;;13.10;2.78;;;6.00;99.90;;;;;;5072492;28;20173;-43
2023/01/10 05:00:10;;;;;;;9.98;2.85;;;6.00;99.90;;;;;;5072536;28;20533;-42
2023/01/10 05:02:42;;;;;;;15.55;3.22;;;6.00;99.90;;;;;;5072421;28;20261;-43
2023/01/10 05:05:11;;;;;;;12.38;3.45;;;6.00;99.90;;;;;;5072608;28;20227;-42
2023/01/10 05:07:37;;;;;;;10.25;2.90;;;6.00;99.90;;;;;;5070924;28;20209;-42
2023/01/10 05:10:04;;;;;;;17.35;3.28;;;5.90;99.90;;;;;;5072431;28;20192;-43
2023/01/10 05:12:30;;;;;;;7.35;2.60;;;6.00;99.90;;;;;;5072501;28;20252;-42
2023/01/10 05:14:56;;;;;;;10.25;2.70;;;6.00;99.90;;;;;;5072207;28;20595;-42
2023/01/10 05:17:21;;;;;;;12.98;3.10;;;5.90;99.90;;;;;;5072103;28;20202;-42
2023/01/10 05:19:47;;;;;;;11.45;2.90;;;5.80;99.90;;;;;;5072127;28;20215;-43
2023/01/10 05:22:12;;;;;;;14.55;2.53;;;5.90;99.90;;;;;;5071883;28;20177;-42
2023/01/10 05:24:38;;;;;;;10.90;2.75;;;5.80;99.90;;;;;;5072089;28;20170;-42
2023/01/10 05:27:03;;;;;;;12.32;2.60;;;5.80;99.90;;;;;;5070726;28;20201;-41
2023/01/10 05:29:29;;;;;;;13.13;2.55;;;5.70;99.90;;;;;;5071382;28;20178;-43
2023/01/10 05:31:55;;;;;;;12.13;3.17;;;5.70;99.90;;;;;;5071679;28;20158;-42
2023/01/10 05:34:20;;;;;;;5.75;2.30;;;5.70;99.90;;;;;;5072020;28;20170;-42
2023/01/10 05:36:46;;;;;;;8.65;3.45;;;5.60;99.90;;;;;;5072200;28;20168;-43
2023/01/10 05:39:12;;;;;;;17.42;2.83;;;5.70;99.90;;;;;;5072140;28;20181;-42
2023/01/10 05:41:39;;;;;;;12.50;2.83;;;5.60;99.90;;;;;;5071847;28;20573;-42
2023/01/10 05:44:05;;;;;;;10.60;2.90;;;5.60;99.90;;;;;;5072058;28;20574;-42
2023/01/10 05:46:30;;;;;;;13.80;2.80;;;5.60;99.90;;;;;;5071775;28;20228;-42
2023/01/10 05:48:56;;;;;;;17.13;2.80;;;5.50;99.90;;;;;;5070869;28;20205;-42
2023/01/10 05:51:22;;;;;;;14.73;3.00;;;5.50;99.90;;;;;;5071726;28;20668;-43
2023/01/10 05:53:47;;;;;;;13.35;3.50;;;5.50;99.90;;;;;;5072150;28;20166;-43
2023/01/10 05:56:13;;;;;;;14.50;3.30;;;5.50;99.90;;;;;;5071658;28;20170;-42
2023/01/10 05:58:38;;;;;;;9.07;2.63;;;5.50;99.90;;;;;;5071590;28;20169;-43
2023/01/10 06:01:04;;;;;;;7.80;2.40;;;5.40;99.90;;;;;;5071425;28;20174;-42
2023/01/10 06:03:30;;;;;;;15.48;3.17;;;5.50;99.90;;;;;;5071142;28;20330;-42
2023/01/10 06:05:55;;;;;;;11.15;3.33;;;5.40;99.90;;;;;;5070137;28;20169;-43
2023/01/10 06:08:21;;;;;;;11.77;2.90;;;5.40;99.90;;;;;;5071505;28;20219;-43
2023/01/10 06:10:47;;;;;;;11.95;3.50;;;5.40;99.90;;;;;;5071940;28;20162;-43
2023/01/10 06:13:13;;;;;;;14.90;3.10;;;5.40;99.90;;;;;;5071451;28;20523;-44
2023/01/10 06:15:38;;;;;;;11.52;2.63;;;5.40;99.90;;;;;;5071522;28;20172;-44
2023/01/10 06:18:04;;;;;;;13.70;3.20;;;5.40;99.90;;;;;;5071476;28;20248;-43
2023/01/10 06:20:30;;;;;;;7.35;2.75;;;5.40;99.90;;;;;;5071499;28;20172;-43
2023/01/10 06:22:57;;;;;;;14.48;2.92;;;5.40;99.90;;;;;;5071403;28;20548;-43
2023/01/10 06:25:23;;;;;;;11.07;2.55;;;5.40;99.90;;;;;;5071563;28;20180;-44
2023/01/10 06:27:48;;;;;;;9.70;2.30;;;5.40;99.90;;;;;;5071602;28;20202;-44
2023/01/10 06:30:14;;;;;;;11.02;2.83;;;5.40;99.90;;;;;;5071680;28;20181;-43
2023/01/10 06:32:41;;;;;;;8.30;2.20;;;5.40;99.90;;;;;;5071293;28;20162;-43
2023/01/10 06:35:07;;;;;;;13.57;2.90;;;5.50;99.90;;;;;;5071608;28;20174;-43
2023/01/10 06:37:33;;;;;;;9.95;2.70;;;5.50;99.90;;;;;;5071202;28;20173;-42
2023/01/10 06:39:58;;;;;;;7.40;2.40;;;5.50;99.90;;;;;;5071199;28;20178;-44
2023/01/10 06:42:24;;;;;;;10.05;3.08;;;5.50;99.90;;;;;;5071236;28;20162;-43
2023/01/10 06:44:49;;;;;;;25.98;3.80;;;5.40;99.90;;;;;;5071267;28;20174;-44
2023/01/10 06:47:15;;;;;;;20.17;3.20;;;5.40;99.90;;;;;;5071469;28;20201;-43
2023/01/10 06:49:40;;;;;;;10.75;2.28;;;5.30;99.90;;;;;;5071098;28;20174;-43
2023/01/10 06:52:06;;;;;;;14.18;3.28;;;5.30;99.90;;;;;;5071051;28;20216;-42
2023/01/10 06:54:31;;;;;;;18.65;3.50;;;5.30;99.90;;;;;;5070839;28;20170;-43
2023/01/10 06:56:57;;;;;;;18.27;3.83;;;5.30;99.90;;;;;;5071015;28;20170;-43
2023/01/10 06:59:23;;;;;;;17.52;2.80;;;5.20;99.90;;;;;;5071128;28;20163;-42
2023/01/10 07:01:48;;;;;;;15.75;3.28;;;5.20;99.90;;;;;;5073984;28;20213;-43
2023/01/10 07:04:14;;;;;;;16.75;3.13;;;5.20;99.90;;;;;;5075319;28;20176;-42
2023/01/10 07:06:40;;;;;;;10.80;3.65;;;5.20;99.90;;;;;;5074564;28;20638;-43
2023/01/10 07:09:06;;;;;;;19.48;3.05;;;5.10;99.90;;;;;;5074666;28;20185;-43
2023/01/10 07:11:33;;;;;;;12.65;2.50;;;5.20;99.90;;;;;;5074493;28;20162;-42
2023/01/10 07:13:59;;;;;;;9.70;2.65;;;5.20;99.90;;;;;;5074792;28;20231;-42
2023/01/10 07:16:25;;;;;;;14.95;2.80;;;5.10;99.90;;;;;;5074507;28;20599;-44
2023/01/10 07:18:50;;;;;;;14.15;2.55;;;5.10;99.90;;;;;;5074329;28;20216;-43
2023/01/10 07:21:18;;;;;;;14.10;3.13;;;5.00;99.90;;;;;;5074805;28;20626;-42
2023/01/10 07:23:47;;;;;;;17.67;3.70;;;5.10;99.90;;;;;;5074851;28;20174;-42
2023/01/10 07:26:16;;;;;;;13.63;3.20;;;5.00;99.90;;;;;;5074486;28;20166;-42
2023/01/10 07:28:47;;;;;;;16.98;4.90;;;5.00;99.90;;;;;;5074495;28;20216;-42
2023/01/10 07:31:13;;;;;;;20.75;3.63;;;4.90;99.90;;;;;;5074456;28;20257;-43
2023/01/10 07:33:39;;;;;;;18.60;3.28;;;4.90;99.90;;;;;;5072919;28;20177;-42
2023/01/10 07:36:05;;;;;;;9.13;2.58;;;5.00;99.90;;;;;;5074144;28;20166;-42
2023/01/10 07:38:30;;;;;;;16.30;3.30;;;4.90;99.90;;;;;;5074166;28;20162;-42
2023/01/10 07:40:56;;;;;;;16.65;3.15;;;4.90;99.90;;;;;;5074138;28;20189;-42
2023/01/10 07:43:21;;;;;;;21.58;4.50;;;4.90;99.90;;;;;;5074010;28;20162;-42
2023/01/10 07:45:47;;;;;;;20.30;4.18;;;5.00;99.90;;;;;;5074269;28;20166;-42
2023/01/10 07:48:13;;;;;;;19.52;3.33;;;4.90;99.90;;;;;;5074086;28;20259;-42
2023/01/10 07:50:38;;;;;;;11.05;3.55;;;5.00;99.90;;;;;;5073843;28;20177;-42
2023/01/10 07:53:06;;;;;;;15.02;3.20;;;4.90;99.90;;;;;;5073811;28;20166;-42
2023/01/10 07:55:35;;;;;;;17.95;3.70;;;5.00;99.90;;;;;;5073780;28;20633;-42
2023/01/10 07:58:01;;;;;;;22.33;3.90;;;5.00;99.90;;;;;;5074007;28;20579;-42
2023/01/10 08:00:26;;;;;;;20.33;3.55;;;5.00;99.90;;;;;;5073615;28;20749;-42
2023/01/10 08:02:53;;;;;;;11.45;3.25;;;5.00;99.90;;;;;;5073468;28;20308;-42
2023/01/10 08:05:20;;;;;;;14.43;3.03;;;5.00;99.90;;;;;;5073867;28;20208;-42
2023/01/10 08:07:45;;;;;;;20.67;4.63;;;5.00;99.90;;;;;;5073783;28;20194;-42
2023/01/10 08:10:11;;;;;;;22.45;4.28;;;5.10;99.90;;;;;;5072317;28;20174;-42
2023/01/10 08:12:36;;;;;;;25.00;4.18;;;5.00;99.90;;;;;;5073370;28;20206;-42
2023/01/10 08:15:02;;;;;;;20.85;3.30;;;5.10;99.90;;;;;;5073349;28;20645;-42
2023/01/10 08:17:28;;;;;;;21.25;3.55;;;5.10;99.90;;;;;;5073595;28;20170;-42
2023/01/10 08:19:53;;;;;;;17.58;3.30;;;5.10;99.90;;;;;;5072236;28;20657;-42
2023/01/10 08:22:19;;;;;;;22.42;4.25;;;5.20;99.90;;;;;;5073296;28;20162;-42
2023/01/10 08:24:44;;;;;;;12.25;3.22;;;5.20;99.90;;;;;;5073610;28;20170;-42
2023/01/10 08:27:10;;;;;;;16.58;2.97;;;5.20;99.90;;;;;;5073108;28;20290;-42
2023/01/10 08:29:36;;;;;;;12.60;3.35;;;5.20;99.90;;;;;;5073367;28;20216;-42
2023/01/10 08:32:01;;;;;;;13.98;2.65;;;5.20;99.90;;;;;;5073303;28;20166;-42
2023/01/10 08:34:27;;;;;;;15.38;3.72;;;5.30;99.90;;;;;;5073039;28;20257;-42
2023/01/10 08:36:53;;;;;;;15.77;3.45;;;5.30;99.90;;;;;;5072999;28;20166;-42
2023/01/10 08:39:25;;;;;;;21.38;4.13;;;5.30;99.90;;;;;;5072879;28;20173;-43
2023/01/10 08:41:51;;;;;;;18.77;3.42;;;5.40;99.90;;;;;;5073217;28;20174;-43
2023/01/10 08:44:17;;;;;;;16.63;3.75;;;5.50;99.90;;;;;;5073160;28;20166;-42
2023/01/10 08:46:43;;;;;;;12.20;3.42;;;5.50;99.90;;;;;;5072762;28;20520;-43
2023/01/10 08:49:08;;;;;;;15.50;2.92;;;5.50;99.90;;;;;;5072696;28;20205;-42
2023/01/10 08:51:35;;;;;;;17.63;3.92;;;5.60;99.90;;;;;;5072859;28;20166;-42
2023/01/10 08:54:00;;;;;;;15.65;2.47;;;5.60;99.90;;;;;;5072713;28;20656;-44
2023/01/10 08:56:26;;;;;;;12.85;2.53;;;5.60;99.90;;;;;;5072701;28;20166;-45
2023/01/10 08:58:51;;;;;;;17.60;3.78;;;5.60;99.90;;;;;;5072653;28;20193;-45
2023/01/10 09:01:17;;;;;;;15.98;2.63;;;5.70;99.90;;;;;;5073045;28;20202;-45
2023/01/10 09:03:43;;;;;;;18.05;3.50;;;5.70;99.90;;;;;;5071555;28;20178;-44
2023/01/10 09:06:10;;;;;;;19.88;3.80;;;5.70;99.90;;;;;;5072676;28;20179;-45
2023/01/10 09:08:36;;;;;;;32.45;3.25;;;5.70;99.90;;;;;;5071007;28;20288;-42
2023/01/10 09:11:04;;;;;;;15.65;3.28;;;5.80;99.90;;;;;;5072570;28;20280;-42
2023/01/10 09:13:30;;;;;;;21.15;4.10;;;5.80;99.90;;;;;;5072283;28;20158;-42
2023/01/10 09:15:56;;;;;;;16.38;3.78;;;5.80;99.90;;;;;;5072457;28;20173;-42
2023/01/10 09:18:22;;;;;;;19.25;3.58;;;5.80;99.90;;;;;;5072170;28;20196;-43
2023/01/10 09:20:49;;;;;;;19.95;4.03;;;5.90;99.90;;;;;;5072293;28;20169;-42
2023/01/10 09:23:18;;;;;;;16.83;2.65;;;5.90;99.90;;;;;;5072009;28;20212;-45
2023/01/10 09:25:45;;;;;;;19.33;4.05;;;5.90;99.90;;;;;;5072715;28;20217;-45
2023/01/10 09:28:11;;;;;;;16.33;4.00;;;5.90;99.90;;;;;;5071855;28;20308;-45
2023/01/10 09:30:37;;;;;;;18.05;3.78;;;6.00;99.90;;;;;;5072059;28;20630;-44
2023/01/10 09:33:04;;;;;;;12.70;2.92;;;6.10;99.90;;;;;;5072248;28;20173;-44
2023/01/10 09:35:30;;;;;;;22.20;3.70;;;6.10;99.90;;;;;;5071946;28;20169;-44
2023/01/10 09:37:59;;;;;;;13.60;2.83;;;6.20;99.90;;;;;;5071848;28;20173;-44
2023/01/10 09:40:59;;;;;;;12.43;2.50;;;6.20;99.90;;;;;;5072111;28;20166;-44
2023/01/10 09:43:37;;;;;;;16.55;3.40;;;6.20;99.90;;;;;;5071921;28;20192;-44
2023/01/10 09:46:08;;;;;;;14.43;3.00;;;6.30;99.90;;;;;;5071790;28;20166;-44
2023/01/10 09:49:04;;;;;;;18.67;3.20;;;6.30;99.90;;;;;;5071661;28;20719;-45
2023/01/10 09:51:49;;;;;;;12.93;2.65;;;6.30;99.90;;;;;;5072044;28;20525;-44
2023/01/10 09:54:23;;;;;;;14.75;3.28;;;9.00;99.90;;;;;;5072276;28;20223;-42
2023/01/10 09:56:49;;;;;;;23.60;3.75;;;6.40;99.90;;;;;;5071645;28;20630;-43
2023/01/10 09:59:18;;;;;;;23.50;4.18;;;6.40;99.90;;;;;;5072073;28;20174;-43
2023/01/10 10:01:47;;;;;;;17.50;3.38;;;6.40;99.90;;;;;;5072031;28;20205;-43
2023/01/10 10:04:22;;;;;;;14.90;2.92;;;6.40;99.90;;;;;;5071533;28;20181;-42
2023/01/10 10:06:52;;;;;;;15.15;3.20;;;6.50;99.90;;;;;;5071507;28;20265;-42
2023/01/10 10:09:28;;;;;;;10.98;3.30;;;6.60;99.90;;;;;;5071991;28;20205;-42
2023/01/10 10:12:20;;;;;;;16.17;3.75;;;6.70;99.90;;;;;;5071719;28;20165;-46
2023/01/10 10:14:58;;;;;;;18.98;3.67;;;6.70;99.90;;;;;;5043249;28;20186;-43
2023/01/10 10:17:35;;;;;;;20.05;3.40;;;6.80;99.90;;;;;;5071537;28;20170;-44
2023/01/10 10:20:26;;;;;;;12.73;3.40;;;6.90;99.90;;;;;;5071462;28;20169;-42
2023/01/10 10:23:17;;;;;;;14.20;3.50;;;6.90;99.90;;;;;;5071464;28;20253;-42
2023/01/10 10:25:51;;;;;;;21.25;3.50;;;7.00;99.90;;;;;;5064708;28;20178;-42
2023/01/10 10:28:35;;;;;;;15.45;2.97;;;7.00;99.90;;;;;;5071783;28;20553;-43
2023/01/10 10:31:22;;;;;;;18.08;4.05;;;10.50;99.90;;;;;;5071442;28;20249;-44
2023/01/10 10:34:17;;;;;;;18.13;3.72;;;7.20;99.90;;;;;;5071404;28;20170;-43
2023/01/10 10:36:50;;;;;;;18.88;3.40;;;7.20;99.90;;;;;;5074446;28;20211;-44
2023/01/10 10:39:19;;;;;;;13.30;3.83;;;7.30;99.90;;;;;;5075485;28;20200;-44
2023/01/10 10:41:51;;;;;;;18.23;3.35;;;7.30;99.90;;;;;;5075579;28;20196;-43
2023/01/10 10:44:22;;;;;;;15.85;3.38;;;7.30;99.90;;;;;;5075607;28;20567;-43
2023/01/10 10:46:48;;;;;;;18.17;3.33;;;7.40;99.90;;;;;;5075069;28;20162;-42
2023/01/10 10:49:51;;;;;;;17.50;3.55;;;7.40;99.90;;;;;;5075445;28;20575;-43
2023/01/10 10:52:24;;;;;;;14.82;2.95;;;7.40;99.90;;;;;;5075400;28;20170;-43
2023/01/10 10:54:50;;;;;;;15.75;3.20;;;7.50;99.90;;;;;;5075218;28;20217;-42
2023/01/10 10:57:16;;;;;;;19.42;4.22;;;7.60;99.90;;;;;;5075127;28;20257;-44
2023/01/10 10:59:45;;;;;;;20.88;3.35;;;7.60;99.90;;;;;;5075063;28;20181;-43
2023/01/10 11:02:22;;;;;;;24.20;6.63;;;7.70;99.90;;;;;;5074635;28;20221;-42
2023/01/10 11:04:51;;;;;;;6.28;2.28;;;7.80;99.90;;;;;;5074769;28;20166;-42
2023/01/10 11:07:18;;;;;;;14.10;3.28;;;7.80;99.90;;;;;;5075061;28;20186;-43
2023/01/10 11:10:02;;;;;;;17.77;3.95;;;7.80;99.90;;;;;;5075146;28;20634;-43
2023/01/10 11:12:31;;;;;;;20.83;4.20;;;7.80;99.90;;;;;;5074808;28;20203;-43
2023/01/10 11:14:58;;;;;;;14.68;3.78;;;7.90;99.90;;;;;;5074858;28;20472;-43
2023/01/10 11:17:30;;;;;;;17.92;3.55;;;7.90;99.90;;;;;;5074446;28;20190;-44
2023/01/10 11:20:01;;;;;;;15.60;3.28;;;7.90;99.90;;;;;;5074340;28;20318;-44
2023/01/10 11:22:31;;;;;;;14.23;2.65;;;8.00;99.90;;;;;;5074284;28;20178;-43
2023/01/10 11:25:01;;;;;;;21.15;6.22;;;8.00;99.90;;;;;;5074637;28;20636;-44
2023/01/10 11:27:29;;;;;;;18.88;3.63;;;8.10;99.90;;;;;;5074181;28;20662;-43
2023/01/10 11:30:02;;;;;;;18.33;6.20;;;8.10;99.90;;;;;;5074250;28;20655;-43
2023/01/10 11:32:39;;;;;;;9.55;3.33;;;8.10;99.90;;;;;;5074146;28;20192;-43
2023/01/10 11:35:24;;;;;;;12.80;3.17;;;8.20;99.90;;;;;;5074043;28;20256;-44
2023/01/10 11:38:17;;;;;;;14.00;3.53;;;8.20;99.90;;;;;;5074417;28;20165;-44
2023/01/10 11:41:05;;;;;;;15.68;4.88;;;8.30;99.90;;;;;;5074497;28;20173;-42
2023/01/10 11:43:35;;;;;;;10.43;3.13;;;8.30;99.90;;;;;;5073955;28;20174;-44
2023/01/10 11:46:05;;;;;;;14.20;2.90;;;8.30;99.90;;;;;;5073850;28;20194;-44
2023/01/10 11:48:47;;;;;;;12.93;3.13;;;8.40;99.90;;;;;;5073698;28;20209;-43
2023/01/10 11:51:28;;;;;;;9.95;2.45;;;8.50;99.90;;;;;;5074008;28;20542;-43
2023/01/10 11:53:59;;;;;;;11.73;3.20;;;8.50;99.90;;;;;;5073866;28;20170;-43
2023/01/10 11:56:34;;;;;;;13.85;3.22;;;8.50;99.90;;;;;;5073833;28;20611;-43
2023/01/10 11:59:11;;;;;;;10.98;3.22;;;8.50;99.90;;;;;;5073757;28;20208;-44
2023/01/10 12:02:18;;;;;;;12.05;3.67;;;8.60;99.90;;;;;;5073757;28;20174;-44
2023/01/10 12:04:46;;;;;;;14.38;3.10;;;8.70;99.90;;;;;;5050649;28;20205;-42
2023/01/10 12:07:12;;;;;;;15.57;3.15;;;8.70;99.90;;;;;;5073469;28;20640;-44
2023/01/10 12:09:43;;;;;;;17.50;3.30;;;8.70;99.90;;;;;;5073590;28;20239;-44
2023/01/10 12:12:22;;;;;;;18.38;3.25;;;8.70;99.90;;;;;;5073842;28;20170;-43
2023/01/10 12:14:49;;;;;;;16.73;3.67;;;8.70;99.90;;;;;;5073417;28;20166;-44
2023/01/10 12:17:24;;;;;;;10.55;3.00;;;8.70;99.90;;;;;;5073845;28;20162;-44
2023/01/10 12:19:55;;;;;;;11.73;2.80;;;8.70;99.90;;;;;;5073302;28;20161;-43
2023/01/10 12:22:28;;;;;;;14.60;4.07;;;8.80;99.90;;;;;;5072007;28;20181;-42
2023/01/10 12:24:55;;;;;;;13.20;2.75;;;8.70;99.90;;;;;;5073514;28;20219;-42
2023/01/10 12:27:24;;;;;;;13.02;2.83;;;8.70;99.90;;;;;;5073157;28;20224;-43
2023/01/10 12:30:02;;;;;;;39.47;6.15;;;8.70;99.90;;;;;;5073419;28;20201;-43
2023/01/10 12:32:40;;;;;;;15.68;3.38;;;8.70;99.90;;;;;;5073157;28;20200;-43
2023/01/10 12:35:12;;;;;;;14.45;2.90;;;8.80;99.90;;;;;;5073283;28;20595;-46
2023/01/10 12:37:46;;;;;;;10.32;2.67;;;8.80;99.90;;;;;;5073003;28;20169;-44
2023/01/10 12:40:29;;;;;;;8.43;2.88;;;8.70;99.90;;;;;;5073177;28;20622;-44
2023/01/10 12:45:53;;;;;;;14.60;4.00;;;8.50;99.90;;;;;;5073443;28;20169;-45
2023/01/10 12:48:48;;;;;;;14.98;3.80;;;8.50;99.90;;;;;;5072716;28;20665;-42
2023/01/10 12:51:18;;;;;;;12.00;3.72;;;8.50;99.90;;;;;;5073049;28;20170;-42
2023/01/10 12:53:57;;;;;;;9.55;3.08;;;8.50;99.90;;;;;;5072891;28;20169;-41
2023/01/10 12:56:23;;;;;;;18.55;3.42;;;8.60;99.90;;;;;;5072587;28;20252;-42
2023/01/10 12:59:00;;;;;;;15.32;3.10;;;8.60;99.90;;;;;;5071987;28;20170;-42
2023/01/10 13:01:39;;;;;;;14.23;2.65;;;8.60;99.90;;;;;;5072318;28;20166;-42
2023/01/10 13:04:17;;;;;;;12.18;3.78;;;8.50;99.90;;;;;;5072718;28;20180;-42
2023/01/10 13:06:43;;;;;;;13.77;3.03;;;8.60;99.90;;;;;;5072729;28;20257;-42
2023/01/10 13:09:24;;;;;;;10.60;3.75;;;8.60;99.90;;;;;;5072297;28;20202;-42
2023/01/10 13:12:02;;;;;;;13.82;2.40;;;8.60;99.90;;;;;;5071418;28;20174;-44
2023/01/10 13:14:39;;;;;;;10.23;3.30;;;8.60;99.90;;;;;;5072097;28;20235;-45
2023/01/10 13:17:30;;;;;;;10.38;3.10;;;8.60;99.90;;;;;;5071963;28;20661;-45